Date,TemperatureHighF,TemperatureAvgF,TemperatureLowF,DewpointHighF,DewpointAvgF,DewpointLowF,HumidityHigh,HumidityAvg,HumidityLow,PressureMaxIn,PressureMinIn,WindSpeedMaxMPH,WindSpeedAvgMPH,GustSpeedMaxMPH,PrecipitationSumIn
2013-8-1,68,59,46,-100,-100,-100,0,0,100,0.00,40.00,0,0,0,0.00
2013-8-2,60,51,45,-100,-100,-100,0,0,100,0.00,40.00,0,0,0,0.00
2013-8-3,66,57,50,-100,-100,-100,0,0,100,0.00,40.00,0,0,0,0.00
2013-8-4,73,64,55,-100,-100,-100,0,0,100,0.00,40.00,0,0,0,0.00
2013-8-5,76,68,60,-100,-100,-100,0,0,100,0.00,40.00,0,0,0,0.00
2013-8-6,74,67,59,-100,-100,-100,0,0,100,0.00,40.00,0,0,0,0.00
2013-8-7,76,70,63,-100,-100,-100,0,0,100,0.00,40.00,0,0,0,0.00
2013-8-8,77,64,59,-100,-100,-100,0,0,100,0.00,40.00,0,0,0,0.00
2013-8-9,75,66,59,-100,-100,-100,0,0,100,0.00,40.00,0,0,0,0.00
2013-8-10,73,65,58,-100,-100,-100,0,0,100,0.00,40.00,0,0,0,0.00
2013-8-11,74,66,62,-100,-100,-100,0,0,100,0.00,40.00,0,0,0,0.00
2013-8-12,77,68,60,-100,-100,-100,0,0,100,0.00,40.00,0,0,0,0.00
2013-8-13,74,60,52,-100,-100,-100,0,0,100,0.00,40.00,0,0,0,0.00
2013-8-14,77,69,61,-100,-100,-100,0,0,100,0.00,40.00,0,0,0,0.00
2013-8-15,81,66,69,-100,-100,-100,0,0,100,0.00,40.00,0,0,0,0.00
2013-8-16,77,70,67,-100,-100,-100,0,0,100,0.00,40.00,0,0,0,0.00
2013-8-17,76,70,61,-100,-100,-100,0,0,100,0.00,40.00,0,0,0,0.00
2013-8-18,76,68,60,-100,-100,-100,0,0,100,0.00,40.00,0,0,0,0.00
2013-8-19,78,72,62,-100,-100,-100,0,0,100,0.00,40.00,0,0,0,0.00
2013-8-20,76,69,64,-100,-100,-100,0,0,100,0.00,40.00,0,0,0,0.00
2013-8-21,76,72,59,-100,-100,-100,0,0,100,0.00,40.00,0,0,0,0.00
2013-8-22,72,67,57,-100,-100,-100,0,0,100,0.00,40.00,0,0,0,0.00
2013-8-23,68,61,52,-100,-100,-100,0,0,100,0.00,40.00,0,0,0,0.00
2013-8-24,72,65,56,-100,-100,-100,0,0,100,0.00,40.00,0,0,0,0.00
2013-8-25,71,63,56,-100,-100,-100,0,0,100,0.00,40.00,0,0,0,0.00
2013-8-26,67,60,54,-100,-100,-100,0,0,100,0.00,40.00,0,0,0,0.00
2013-8-27,66,64,63,-100,-100,-100,0,0,100,0.00,40.00,0,0,0,0.00
2013-8-28,72,67,63,-100,-100,-100,0,0,100,0.00,40.00,0,0,0,0.00
2013-8-29,74,69,61,-100,-100,-100,0,0,100,0.00,40.00,0,0,0,0.00
2013-8-30,69,66,59,-100,-100,-100,0,0,100,0.00,40.00,0,0,0,0.00
2013-8-31,76,68,58,-100,-100,-100,0,0,100,0.00,40.00,0,0,0,0.00